createdAt,value
2019-01-19T00:00:05.985Z,15.07
2019-01-19T00:02:56.617Z,17.90
2019-01-19T00:05:47.189Z,14.47
2019-01-19T00:08:39.648Z,18.57
2019-01-19T00:11:32.103Z,17.77
2019-01-19T00:14:24.586Z,13.93
2019-01-19T00:17:15.130Z,18.30
2019-01-19T00:20:05.684Z,20.10
2019-01-19T00:22:56.229Z,19.60
2019-01-19T00:25:46.799Z,21.80
2019-01-19T00:28:37.359Z,25.67
2019-01-19T00:31:27.896Z,19.63
2019-01-19T00:34:18.452Z,17.03
2019-01-19T00:37:11.269Z,19.70
2019-01-19T00:40:01.802Z,19.53
2019-01-19T00:42:54.510Z,19.60
2019-01-19T00:45:45.084Z,18.50
2019-01-19T00:48:35.634Z,19.10
2019-01-19T00:51:26.189Z,17.53
2019-01-19T00:54:17.847Z,20.63
2019-01-19T00:57:10.366Z,22.00
2019-01-19T01:00:02.831Z,17.17
2019-01-19T01:02:53.401Z,15.77
2019-01-19T01:05:45.856Z,16.07
2019-01-19T01:08:38.340Z,15.67
2019-01-19T01:11:28.920Z,15.73
2019-01-19T01:14:21.400Z,17.63
2019-01-19T01:17:13.861Z,15.43
2019-01-19T01:20:04.408Z,17.87
2019-01-19T01:22:54.977Z,18.27
2019-01-19T01:25:45.537Z,14.87
2019-01-19T01:28:38.005Z,15.37
2019-01-19T01:31:30.462Z,15.97
2019-01-19T01:34:22.943Z,13.97
2019-01-19T01:37:15.396Z,15.50
2019-01-19T01:40:07.860Z,14.90
2019-01-19T01:42:58.426Z,12.67
2019-01-19T01:45:49.013Z,15.20
2019-01-19T01:48:41.496Z,14.57
2019-01-19T01:51:32.038Z,17.57
2019-01-19T01:54:22.595Z,13.53
2019-01-19T01:56:33.421Z,12.17
2019-01-19T01:59:23.977Z,13.73
2019-01-19T02:02:16.454Z,14.67
2019-01-19T02:05:07.002Z,15.90
2019-01-19T02:07:59.447Z,12.80
2019-01-19T02:10:50.083Z,13.53
2019-01-19T02:13:40.640Z,13.70
2019-01-19T02:16:33.117Z,14.40
2019-01-19T02:19:25.569Z,15.23
2019-01-19T02:22:16.309Z,17.33
2019-01-19T02:25:06.879Z,21.93
2019-01-19T02:27:57.461Z,15.53
2019-01-19T02:30:49.927Z,23.03
2019-01-19T02:33:40.483Z,22.60
2019-01-19T02:36:31.097Z,20.03
2019-01-19T02:39:21.634Z,17.97
2019-01-19T02:42:12.211Z,20.40
2019-01-19T02:45:04.661Z,19.40
2019-01-19T02:47:55.234Z,16.17
2019-01-19T02:50:45.797Z,15.00
2019-01-19T02:53:36.359Z,14.27
2019-01-19T02:56:28.793Z,14.13
2019-01-19T02:59:21.297Z,13.47
2019-01-19T03:07:43.200Z,13.87
2019-01-19T03:10:35.654Z,16.30
2019-01-19T03:13:28.128Z,15.53
2019-01-19T03:16:18.665Z,13.13
2019-01-19T03:19:09.230Z,14.70
2019-01-19T03:21:59.766Z,18.10
2019-01-19T03:24:52.236Z,17.67
2019-01-19T03:27:44.716Z,15.73
2019-01-19T03:30:37.163Z,14.73
2019-01-19T03:33:27.722Z,14.63
2019-01-19T03:36:20.170Z,15.07
2019-01-19T03:39:12.629Z,14.87
2019-01-19T03:42:03.860Z,15.40
2019-01-19T03:44:56.319Z,14.97
2019-01-19T03:47:48.784Z,12.90
2019-01-19T03:50:39.339Z,13.10
2019-01-19T03:53:30.103Z,13.00
2019-01-19T03:56:20.632Z,13.57
2019-01-19T03:59:11.216Z,15.23
2019-01-19T04:02:01.775Z,13.83
2019-01-19T04:04:52.395Z,11.80
2019-01-19T04:07:42.865Z,12.87
2019-01-19T04:10:33.452Z,14.77
2019-01-19T04:13:25.888Z,12.57
2019-01-19T04:16:16.445Z,17.27
2019-01-19T04:19:06.994Z,13.37
2019-01-19T04:21:59.461Z,11.40
2019-01-19T04:24:51.903Z,12.37
2019-01-19T04:27:02.717Z,15.37
2019-01-19T04:29:13.508Z,14.60
2019-01-19T04:31:24.322Z,14.07
2019-01-19T04:33:35.134Z,12.03
2019-01-19T04:35:45.933Z,13.87
2019-01-19T04:37:56.754Z,17.87
2019-01-19T04:40:49.213Z,15.43
2019-01-19T04:43:00.001Z,14.60
2019-01-19T04:45:10.996Z,14.10
2019-01-19T04:47:21.810Z,14.83
2019-01-19T04:49:32.601Z,12.33
2019-01-19T04:51:43.437Z,14.67
2019-01-19T04:53:54.231Z,14.57
2019-01-19T04:56:05.138Z,12.83
2019-01-19T04:58:15.987Z,11.63
2019-01-19T05:00:26.788Z,13.80
2019-01-19T05:02:37.608Z,13.43
2019-01-19T05:04:48.515Z,12.47
2019-01-19T05:06:59.324Z,15.00
2019-01-19T05:09:10.230Z,13.10
2019-01-19T05:11:21.016Z,13.00
2019-01-19T05:13:31.837Z,11.83
2019-01-19T05:15:42.637Z,11.93
2019-01-19T05:20:32.138Z,12.93
2019-01-19T05:22:42.941Z,12.37
2019-01-19T05:24:53.744Z,11.03
2019-01-19T05:27:24.455Z,13.57
2019-01-19T05:29:35.243Z,14.20
2019-01-19T05:31:46.047Z,13.03
2019-01-19T05:34:16.759Z,12.87
2019-01-19T05:36:27.554Z,11.67
2019-01-19T05:38:38.368Z,14.27
2019-01-19T05:40:49.187Z,11.17
2019-01-19T05:42:59.977Z,16.13
2019-01-19T05:45:52.452Z,12.77
2019-01-19T05:48:03.563Z,14.50
2019-01-19T05:50:56.049Z,13.63
2019-01-19T05:53:06.842Z,14.80
2019-01-19T05:55:17.652Z,12.80
2019-01-19T05:57:28.481Z,12.37
2019-01-19T05:59:39.289Z,12.43
2019-01-19T06:01:50.094Z,12.17
2019-01-19T06:04:00.885Z,11.27
2019-01-19T06:08:30.522Z,13.00
2019-01-19T06:10:41.334Z,13.10
2019-01-19T06:12:52.129Z,14.43
2019-01-19T06:15:44.609Z,16.27
2019-01-19T06:17:55.400Z,11.73
2019-01-19T06:20:47.849Z,13.23
2019-01-19T06:22:58.661Z,11.87
2019-01-19T06:25:31.243Z,13.37
2019-01-19T06:27:42.182Z,14.07
2019-01-19T06:29:52.977Z,12.20
2019-01-19T06:32:03.822Z,12.63
2019-01-19T06:34:14.601Z,14.17
2019-01-19T06:36:25.411Z,12.17
2019-01-19T06:38:36.221Z,14.60
2019-01-19T06:40:47.038Z,11.33
2019-01-19T06:42:58.175Z,12.47
2019-01-19T06:45:50.623Z,13.73
2019-01-19T06:50:20.437Z,12.80
2019-01-19T06:52:31.280Z,12.87
2019-01-19T06:54:42.184Z,13.87
2019-01-19T06:56:53.048Z,9.70
2019-01-19T06:59:03.862Z,13.17
2019-01-19T07:01:14.674Z,13.00
2019-01-19T07:03:25.496Z,12.80
2019-01-19T07:05:36.305Z,12.50
2019-01-19T07:07:47.138Z,13.57
2019-01-19T07:09:57.972Z,12.47
2019-01-19T07:12:08.869Z,13.37
2019-01-19T07:14:19.687Z,10.60
2019-01-19T07:16:30.485Z,13.20
2019-01-19T07:18:41.313Z,11.63
2019-01-19T07:20:52.104Z,10.50
2019-01-19T07:23:02.936Z,12.63
2019-01-19T07:25:13.851Z,13.70
2019-01-19T07:27:24.698Z,13.27
2019-01-19T07:29:35.486Z,11.53
2019-01-19T07:31:46.296Z,14.80
2019-01-19T07:33:57.098Z,12.67
2019-01-19T07:36:08.090Z,12.03
2019-01-19T07:38:18.851Z,14.40
2019-01-19T07:40:29.661Z,13.70
2019-01-19T07:45:54.580Z,11.80
2019-01-19T07:50:24.654Z,12.97
2019-01-19T07:52:35.479Z,14.17
2019-01-19T07:54:46.316Z,11.43
2019-01-19T07:56:57.126Z,11.17
2019-01-19T07:59:08.082Z,12.03
2019-01-19T08:01:18.884Z,12.23
2019-01-19T08:03:29.675Z,12.27
2019-01-19T08:05:40.506Z,11.37
2019-01-19T08:07:51.302Z,10.63
2019-01-19T08:10:43.780Z,12.03
2019-01-19T08:15:47.034Z,12.73
2019-01-19T08:17:57.857Z,12.63
2019-01-19T08:20:50.342Z,13.37
2019-01-19T08:23:01.156Z,12.43
2019-01-19T08:25:53.614Z,13.67
2019-01-19T08:28:04.459Z,13.23
2019-01-19T08:30:35.230Z,13.93
2019-01-19T08:32:46.191Z,16.07
2019-01-19T08:34:56.988Z,11.47
2019-01-19T08:37:07.921Z,12.40
2019-01-19T08:39:19.024Z,12.70
2019-01-19T08:41:29.837Z,12.43
2019-01-19T08:46:13.013Z,14.23
2019-01-19T08:48:24.133Z,13.80
2019-01-19T08:50:34.958Z,12.27
2019-01-19T08:52:45.805Z,10.23
2019-01-19T08:54:56.594Z,13.50
2019-01-19T08:57:07.623Z,12.67
2019-01-19T08:59:18.434Z,10.10
2019-01-19T09:01:29.349Z,11.17
2019-01-19T09:03:40.153Z,11.00
2019-01-19T09:05:50.966Z,10.13
2019-01-19T09:08:01.777Z,9.57
2019-01-19T09:10:32.438Z,9.77
2019-01-19T09:12:43.368Z,13.77
2019-01-19T09:14:54.168Z,10.93
2019-01-19T09:17:05.032Z,9.03
2019-01-19T09:19:15.839Z,11.73
2019-01-19T09:21:26.655Z,11.57
2019-01-19T09:25:56.283Z,12.03
2019-01-19T09:28:07.112Z,12.57
2019-01-19T09:30:59.576Z,13.73
2019-01-19T09:33:10.514Z,12.30
2019-01-19T09:35:21.302Z,13.53
2019-01-19T09:37:32.150Z,13.60
2019-01-19T09:39:42.939Z,14.97
2019-01-19T09:41:53.739Z,15.73
2019-01-19T09:44:04.649Z,14.70
2019-01-19T09:46:15.595Z,14.40
2019-01-19T09:48:33.517Z,15.77
2019-01-19T09:50:44.312Z,15.37
2019-01-19T09:52:55.148Z,13.97
2019-01-19T09:55:27.692Z,18.40
2019-01-19T09:57:38.610Z,15.13
2019-01-19T09:59:49.474Z,18.33
2019-01-19T10:02:00.296Z,15.37
2019-01-19T10:04:11.115Z,16.77
2019-01-19T10:06:22.027Z,15.53
2019-01-19T10:08:32.923Z,17.37
2019-01-19T10:13:06.187Z,15.47
2019-01-19T10:15:58.641Z,18.30
2019-01-19T10:18:09.554Z,16.47
2019-01-19T10:20:40.248Z,16.17
2019-01-19T10:22:51.197Z,15.03
2019-01-19T10:25:43.842Z,16.23
2019-01-19T10:27:54.661Z,19.07
2019-01-19T10:30:47.140Z,17.50
2019-01-19T10:32:58.032Z,15.93
2019-01-19T10:35:50.498Z,16.87
2019-01-19T10:38:01.318Z,16.80
2019-01-19T10:40:53.772Z,15.90
2019-01-19T10:43:04.571Z,18.37
2019-01-19T10:45:35.281Z,16.27
2019-01-19T10:47:46.077Z,20.10
2019-01-19T10:49:56.883Z,18.93
2019-01-19T10:52:07.719Z,20.10
2019-01-19T10:54:18.540Z,18.97
2019-01-19T10:56:29.523Z,18.90
2019-01-19T10:58:40.353Z,17.10
2019-01-19T11:00:51.178Z,17.47
2019-01-19T11:03:02.100Z,19.60
2019-01-19T11:05:54.567Z,18.17
2019-01-19T11:10:37.870Z,16.83
2019-01-19T11:12:48.791Z,19.47
2019-01-19T11:14:59.595Z,18.77
2019-01-19T11:17:10.436Z,18.43
2019-01-19T11:19:21.256Z,19.23
2019-01-19T11:21:32.069Z,15.93
2019-01-19T11:23:42.915Z,15.43
2019-01-19T11:25:53.829Z,19.07
2019-01-19T11:28:04.654Z,16.57
2019-01-19T11:30:57.096Z,18.77
2019-01-19T11:33:07.924Z,17.10
2019-01-19T11:35:19.199Z,15.87
2019-01-19T11:37:29.976Z,15.40
2019-01-19T11:39:40.813Z,15.73
2019-01-19T11:41:51.594Z,18.53
2019-01-19T11:44:02.535Z,15.70
2019-01-19T11:46:13.354Z,17.33
2019-01-19T11:48:24.169Z,15.80
2019-01-19T11:50:34.976Z,16.20
2019-01-19T11:53:07.696Z,16.50
2019-01-19T11:58:32.611Z,17.10
2019-01-19T12:00:43.450Z,17.47
2019-01-19T12:02:54.297Z,13.33
2019-01-19T12:05:05.208Z,16.67
2019-01-19T12:07:16.009Z,17.47
2019-01-19T12:09:26.839Z,17.17
2019-01-19T12:11:37.746Z,17.07
2019-01-19T12:13:48.621Z,15.77
2019-01-19T12:15:59.423Z,18.03
2019-01-19T12:18:10.979Z,17.50
2019-01-19T12:20:43.042Z,19.07
2019-01-19T12:22:54.153Z,16.27
2019-01-19T12:25:46.611Z,17.27
2019-01-19T12:27:57.538Z,18.57
2019-01-19T12:30:29.233Z,14.47
2019-01-19T12:32:40.136Z,17.93
2019-01-19T12:34:50.970Z,16.53
2019-01-19T12:37:01.884Z,17.90
2019-01-19T12:39:12.702Z,19.53
2019-01-19T12:41:23.542Z,18.53
2019-01-19T12:43:34.329Z,17.77
2019-01-19T12:46:26.813Z,18.57
2019-01-19T12:48:37.603Z,18.07
2019-01-19T12:50:48.466Z,15.97
2019-01-19T12:52:59.290Z,18.43
2019-01-19T12:55:31.910Z,20.57
2019-01-19T12:57:42.739Z,16.97
2019-01-19T12:59:53.575Z,16.97
2019-01-19T13:02:04.512Z,18.63
2019-01-19T13:04:15.346Z,16.17
2019-01-19T13:06:46.330Z,17.77
2019-01-19T13:08:57.253Z,17.93
2019-01-19T13:11:49.767Z,14.17
2019-01-19T13:14:03.420Z,17.80
2019-01-19T13:16:55.098Z,21.67
2019-01-19T13:19:47.543Z,17.37
2019-01-19T13:22:39.991Z,17.30
2019-01-19T13:25:30.564Z,20.17
2019-01-19T13:28:21.189Z,17.17
2019-01-19T13:31:11.711Z,15.03
2019-01-19T13:33:44.330Z,18.27
2019-01-19T13:36:34.924Z,16.00
2019-01-19T13:39:25.539Z,15.60
2019-01-19T13:42:16.105Z,15.53
2019-01-19T13:45:06.670Z,15.83
2019-01-19T13:47:57.233Z,16.27
2019-01-19T13:50:47.776Z,20.40
2019-01-19T13:53:38.364Z,16.13
2019-01-19T13:56:28.940Z,17.17
2019-01-19T13:59:19.530Z,16.27
2019-01-19T14:02:10.089Z,18.83
2019-01-19T14:05:00.669Z,16.93
2019-01-19T14:07:51.210Z,17.93
2019-01-19T14:10:41.762Z,17.30
2019-01-19T14:13:32.317Z,18.23
2019-01-19T14:16:22.908Z,18.17
2019-01-19T14:19:15.390Z,18.07
2019-01-19T14:22:07.833Z,19.47
2019-01-19T14:25:00.326Z,17.90
2019-01-19T14:27:52.756Z,16.63
2019-01-19T14:30:43.342Z,18.70
2019-01-19T14:33:35.776Z,18.63
2019-01-19T14:36:26.464Z,18.30
2019-01-19T14:39:17.023Z,20.40
2019-01-19T14:42:09.493Z,18.80
2019-01-19T14:45:01.961Z,21.03
2019-01-19T14:47:52.514Z,17.90
2019-01-19T14:50:44.984Z,18.50
2019-01-19T14:53:35.590Z,18.43
2019-01-19T14:56:26.143Z,18.80
2019-01-19T14:58:58.733Z,19.87
2019-01-19T15:01:49.295Z,19.63
2019-01-19T15:04:39.949Z,19.93
2019-01-19T15:07:32.418Z,20.77
2019-01-19T15:10:05.014Z,19.90
2019-01-19T15:12:57.473Z,21.57
2019-01-19T15:15:48.036Z,19.23
2019-01-19T15:18:40.520Z,18.40
2019-01-19T15:21:32.972Z,21.77
2019-01-19T15:24:23.573Z,20.27
2019-01-19T15:27:15.989Z,17.40
2019-01-19T15:30:08.466Z,18.80
2019-01-19T15:33:00.987Z,17.43
2019-01-19T15:35:53.445Z,18.13
2019-01-19T15:38:44.066Z,18.50
2019-01-19T15:41:36.515Z,18.67
2019-01-19T15:44:27.208Z,19.60
2019-01-19T15:47:17.730Z,17.90
2019-01-19T15:50:08.315Z,18.70
2019-01-19T15:53:00.779Z,19.50
2019-01-19T15:55:51.346Z,20.53
2019-01-19T15:58:43.823Z,17.73
2019-01-19T16:01:36.314Z,19.17
2019-01-19T16:04:28.799Z,18.53
2019-01-19T16:07:19.460Z,16.87
2019-01-19T16:10:11.942Z,20.80
2019-01-19T16:13:04.385Z,20.20
2019-01-19T16:15:54.976Z,20.03
2019-01-19T16:18:47.417Z,21.03
2019-01-19T16:21:37.980Z,19.07
2019-01-19T16:24:28.526Z,19.33
2019-01-19T16:27:19.083Z,20.33
2019-01-19T16:30:11.560Z,18.03
2019-01-19T16:33:02.271Z,20.93
2019-01-19T16:35:52.853Z,22.87
2019-01-19T16:38:43.404Z,20.30
2019-01-19T16:41:36.288Z,22.17
2019-01-19T16:44:28.780Z,24.23
2019-01-19T16:47:19.355Z,21.93
2019-01-19T16:50:09.916Z,25.17
2019-01-19T16:53:02.384Z,21.83
2019-01-19T16:55:54.869Z,21.13
2019-01-19T16:58:45.466Z,24.90
2019-01-19T17:01:37.918Z,21.37
2019-01-19T17:04:30.373Z,22.17
2019-01-19T17:07:22.833Z,19.33
2019-01-19T17:10:15.326Z,24.00
2019-01-19T17:13:07.839Z,23.23
2019-01-19T17:16:00.297Z,22.03
2019-01-19T17:18:52.775Z,21.73
2019-01-19T17:21:43.317Z,22.00
2019-01-19T17:24:35.977Z,25.00
2019-01-19T17:27:26.540Z,23.30
2019-01-19T17:30:17.143Z,22.93
2019-01-19T17:33:07.705Z,26.53
2019-01-19T17:36:00.177Z,24.47
2019-01-19T17:38:50.757Z,22.67
2019-01-19T17:41:41.312Z,27.20
2019-01-19T17:44:31.903Z,25.47
2019-01-19T17:47:24.368Z,27.67
2019-01-19T17:49:56.978Z,25.47
2019-01-19T17:52:49.456Z,24.80
2019-01-19T17:55:40.178Z,26.97
2019-01-19T17:58:30.759Z,27.03
2019-01-19T18:01:21.579Z,26.47
2019-01-19T18:04:14.172Z,27.47
2019-01-19T18:07:06.633Z,26.33
2019-01-19T18:09:57.224Z,27.37
2019-01-19T18:12:47.789Z,30.10
2019-01-19T18:15:38.371Z,27.63
2019-01-19T18:18:30.880Z,27.53
2019-01-19T18:21:21.468Z,27.70
2019-01-19T18:24:13.951Z,26.97
2019-01-19T18:27:04.559Z,26.63
2019-01-19T18:29:55.135Z,28.33
2019-01-19T18:32:47.625Z,28.23
2019-01-19T18:35:40.129Z,26.37
2019-01-19T18:38:30.716Z,29.37
2019-01-19T18:41:21.281Z,29.53
2019-01-19T18:44:11.871Z,28.60
2019-01-19T18:47:02.484Z,26.50
2019-01-19T18:49:54.984Z,26.30
2019-01-19T18:52:45.604Z,28.10
2019-01-19T18:55:38.053Z,30.67
2019-01-19T18:58:28.659Z,27.00
2019-01-19T19:00:52.455Z,24.77
2019-01-19T19:03:44.985Z,24.83
2019-01-19T19:06:37.429Z,28.73
2019-01-19T19:09:10.047Z,27.97
2019-01-19T19:12:00.612Z,28.47
2019-01-19T19:14:53.131Z,24.87
2019-01-19T19:17:45.605Z,25.10
2019-01-19T19:20:38.103Z,27.00
2019-01-19T19:23:30.569Z,29.97
2019-01-19T19:26:23.064Z,30.77
2019-01-19T19:29:15.509Z,30.37
2019-01-19T19:32:06.087Z,32.00
2019-01-19T19:34:58.577Z,28.17
2019-01-19T19:37:49.140Z,30.30
2019-01-19T19:40:39.692Z,31.17
2019-01-19T19:43:32.153Z,32.00
2019-01-19T19:46:22.745Z,33.73
2019-01-19T19:49:15.221Z,29.33
2019-01-19T19:52:05.794Z,27.73
2019-01-19T19:54:16.632Z,30.47
2019-01-19T19:56:27.280Z,33.60
2019-01-19T19:58:38.138Z,33.27
2019-01-19T20:03:11.162Z,32.87
2019-01-19T20:05:22.095Z,36.27
2019-01-19T20:07:33.019Z,33.40
2019-01-19T20:09:43.943Z,32.60
2019-01-19T20:14:17.186Z,36.40
2019-01-19T20:16:27.995Z,31.33
2019-01-19T20:18:38.827Z,35.67
2019-01-19T20:20:49.837Z,32.53
2019-01-19T20:23:20.560Z,35.30
2019-01-19T20:25:31.374Z,35.87
2019-01-19T20:27:42.197Z,32.07
2019-01-19T20:29:53.015Z,31.33
2019-01-19T20:32:03.951Z,35.37
2019-01-19T20:34:14.771Z,34.67
2019-01-19T20:36:25.585Z,34.07
2019-01-19T20:38:36.536Z,38.80
2019-01-19T20:40:47.378Z,33.30
2019-01-19T20:42:58.240Z,36.87
2019-01-19T20:45:28.923Z,35.70
2019-01-19T20:47:39.838Z,37.27
2019-01-19T20:49:50.688Z,34.00
2019-01-19T20:52:01.625Z,36.50
2019-01-19T20:54:12.467Z,34.57
2019-01-19T20:56:23.282Z,33.87
2019-01-19T20:58:34.231Z,36.70
2019-01-19T21:00:45.064Z,35.60
2019-01-19T21:02:55.986Z,34.90
2019-01-19T21:05:06.921Z,36.20
2019-01-19T21:07:17.741Z,33.50
2019-01-19T21:09:28.698Z,32.43
2019-01-19T21:11:39.507Z,36.47
2019-01-19T21:13:50.323Z,35.47
2019-01-19T21:16:01.370Z,37.33
2019-01-19T21:18:12.192Z,32.90
2019-01-19T21:20:23.030Z,37.87
2019-01-19T21:22:33.853Z,37.47
2019-01-19T21:24:44.671Z,39.90
2019-01-19T21:26:55.479Z,37.87
2019-01-19T21:29:06.301Z,38.37
2019-01-19T21:31:17.155Z,39.70
2019-01-19T21:33:27.987Z,37.80
2019-01-19T21:35:38.965Z,40.50
2019-01-19T21:37:49.759Z,38.20
2019-01-19T21:40:00.616Z,39.30
2019-01-19T21:42:11.420Z,42.63
2019-01-19T21:44:22.254Z,37.37
2019-01-19T21:46:33.189Z,43.20
2019-01-19T21:48:44.031Z,39.60
2019-01-19T21:50:54.948Z,39.33
2019-01-19T21:53:05.777Z,43.33
2019-01-19T21:55:16.609Z,40.60
2019-01-19T21:57:27.464Z,44.40
2019-01-19T21:59:38.308Z,41.33
2019-01-19T22:01:49.143Z,48.50
2019-01-19T22:03:59.963Z,43.10
2019-01-19T22:06:10.841Z,42.23
2019-01-19T22:08:21.653Z,39.77
2019-01-19T22:10:32.551Z,45.73
2019-01-19T22:12:43.399Z,42.83
2019-01-19T22:14:54.203Z,37.40
2019-01-19T22:17:05.131Z,46.57
2019-01-19T22:19:15.935Z,41.53
2019-01-19T22:21:26.877Z,43.83
2019-01-19T22:23:37.719Z,40.73
2019-01-19T22:25:48.519Z,41.27
2019-01-19T22:27:59.353Z,51.07
2019-01-19T22:30:51.832Z,44.80
2019-01-19T22:36:03.400Z,42.53
2019-01-19T22:38:14.365Z,37.47
2019-01-19T22:40:25.336Z,39.77
2019-01-19T22:42:36.162Z,46.20
2019-01-19T22:44:47.004Z,46.57
2019-01-19T22:46:57.932Z,41.10
2019-01-19T22:49:08.848Z,44.10
2019-01-19T22:51:19.711Z,40.67
2019-01-19T22:53:30.529Z,43.53
2019-01-19T22:55:41.358Z,44.70
2019-01-19T22:57:52.159Z,36.23
2019-01-19T23:01:02.589Z,42.67
2019-01-19T23:03:33.532Z,42.97
2019-01-19T23:05:44.348Z,44.00
2019-01-19T23:07:55.149Z,43.63
2019-01-19T23:10:47.631Z,43.53
2019-01-19T23:12:58.476Z,40.77
2019-01-19T23:17:31.389Z,38.70
2019-01-19T23:19:42.202Z,38.60
2019-01-19T23:22:14.807Z,33.80
2019-01-19T23:24:25.677Z,38.57
2019-01-19T23:29:08.929Z,37.50
2019-01-19T23:31:19.771Z,37.80
2019-01-19T23:33:30.581Z,39.53
2019-01-19T23:35:41.404Z,34.00
2019-01-19T23:37:52.225Z,35.47
2019-01-19T23:40:44.690Z,38.83
2019-01-19T23:42:55.480Z,34.30
2019-01-19T23:45:28.104Z,38.53
2019-01-19T23:47:39.016Z,36.50
2019-01-19T23:49:49.871Z,36.03
2019-01-19T23:52:00.740Z,39.33
2019-01-19T23:54:11.542Z,40.50
2019-01-19T23:56:22.382Z,42.07
2019-01-19T23:58:33.232Z,43.83
